sensor_id;sensor_type;location;lat;lon;timestamp;P1;durP1;ratioP1;P2;durP2;ratioP2
5381;SDS011;2714;49.852;6.564;2023-03-20T00:00:43;5.77;;;4.57;;
5381;SDS011;2714;49.852;6.564;2023-03-20T00:04:46;6.33;;;4.70;;
5381;SDS011;2714;49.852;6.564;2023-03-20T00:08:47;7.50;;;5.10;;
5381;SDS011;2714;49.852;6.564;2023-03-20T00:12:48;6.97;;;5.53;;
5381;SDS011;2714;49.852;6.564;2023-03-20T00:16:50;9.23;;;5.77;;
5381;SDS011;2714;49.852;6.564;2023-03-20T00:20:51;8.87;;;6.40;;
5381;SDS011;2714;49.852;6.564;2023-03-20T00:24:52;8.87;;;5.53;;
5381;SDS011;2714;49.852;6.564;2023-03-20T00:28:53;10.63;;;6.50;;
5381;SDS011;2714;49.852;6.564;2023-03-20T00:32:55;10.27;;;7.27;;
5381;SDS011;2714;49.852;6.564;2023-03-20T00:36:56;12.60;;;8.60;;
5381;SDS011;2714;49.852;6.564;2023-03-20T00:40:57;10.90;;;7.97;;
5381;SDS011;2714;49.852;6.564;2023-03-20T00:44:57;19.30;;;10.80;;
5381;SDS011;2714;49.852;6.564;2023-03-20T00:48:59;17.20;;;11.77;;
5381;SDS011;2714;49.852;6.564;2023-03-20T00:53:00;21.83;;;13.13;;
5381;SDS011;2714;49.852;6.564;2023-03-20T00:57:02;23.70;;;13.87;;
5381;SDS011;2714;49.852;6.564;2023-03-20T01:01:13;20.20;;;13.30;;
5381;SDS011;2714;49.852;6.564;2023-03-20T01:05:13;20.93;;;13.73;;
5381;SDS011;2714;49.852;6.564;2023-03-20T01:09:14;26.47;;;16.80;;
5381;SDS011;2714;49.852;6.564;2023-03-20T01:13:22;29.90;;;18.60;;
5381;SDS011;2714;49.852;6.564;2023-03-20T01:17:25;30.57;;;19.30;;
5381;SDS011;2714;49.852;6.564;2023-03-20T01:21:27;30.50;;;20.87;;
5381;SDS011;2714;49.852;6.564;2023-03-20T01:25:28;33.17;;;22.00;;
5381;SDS011;2714;49.852;6.564;2023-03-20T01:29:28;29.90;;;20.20;;
5381;SDS011;2714;49.852;6.564;2023-03-20T01:33:30;30.63;;;20.77;;
5381;SDS011;2714;49.852;6.564;2023-03-20T01:37:31;35.10;;;20.97;;
5381;SDS011;2714;49.852;6.564;2023-03-20T01:41:32;34.07;;;22.50;;
5381;SDS011;2714;49.852;6.564;2023-03-20T01:45:33;35.70;;;22.00;;
5381;SDS011;2714;49.852;6.564;2023-03-20T01:54:01;30.50;;;21.07;;
5381;SDS011;2714;49.852;6.564;2023-03-20T01:58:08;36.07;;;23.97;;
5381;SDS011;2714;49.852;6.564;2023-03-20T02:02:20;35.47;;;22.37;;
5381;SDS011;2714;49.852;6.564;2023-03-20T02:06:22;37.87;;;22.83;;
5381;SDS011;2714;49.852;6.564;2023-03-20T02:10:24;37.37;;;21.20;;
5381;SDS011;2714;49.852;6.564;2023-03-20T02:14:24;39.97;;;22.30;;
5381;SDS011;2714;49.852;6.564;2023-03-20T02:18:26;35.30;;;21.70;;
5381;SDS011;2714;49.852;6.564;2023-03-20T02:22:33;34.40;;;23.30;;
5381;SDS011;2714;49.852;6.564;2023-03-20T02:45:03;31.90;;;19.47;;
5381;SDS011;2714;49.852;6.564;2023-03-20T02:53:42;31.40;;;19.60;;
5381;SDS011;2714;49.852;6.564;2023-03-20T03:02:01;32.03;;;19.73;;
5381;SDS011;2714;49.852;6.564;2023-03-20T03:06:08;40.23;;;19.23;;
5381;SDS011;2714;49.852;6.564;2023-03-20T03:10:14;34.17;;;20.53;;
5381;SDS011;2714;49.852;6.564;2023-03-20T03:14:29;31.17;;;18.80;;
5381;SDS011;2714;49.852;6.564;2023-03-20T03:18:36;29.50;;;19.37;;
5381;SDS011;2714;49.852;6.564;2023-03-20T03:22:38;32.47;;;19.37;;
5381;SDS011;2714;49.852;6.564;2023-03-20T03:26:39;31.50;;;19.40;;
5381;SDS011;2714;49.852;6.564;2023-03-20T03:30:41;33.67;;;19.23;;
5381;SDS011;2714;49.852;6.564;2023-03-20T03:34:44;32.80;;;19.47;;
5381;SDS011;2714;49.852;6.564;2023-03-20T03:38:57;31.23;;;20.27;;
5381;SDS011;2714;49.852;6.564;2023-03-20T03:43:06;27.67;;;18.30;;
5381;SDS011;2714;49.852;6.564;2023-03-20T03:47:14;27.53;;;17.17;;
5381;SDS011;2714;49.852;6.564;2023-03-20T03:51:22;27.77;;;17.80;;
5381;SDS011;2714;49.852;6.564;2023-03-20T03:55:25;28.00;;;17.37;;
5381;SDS011;2714;49.852;6.564;2023-03-20T03:59:37;28.17;;;17.00;;
5381;SDS011;2714;49.852;6.564;2023-03-20T04:03:57;29.20;;;17.40;;
5381;SDS011;2714;49.852;6.564;2023-03-20T04:08:02;34.17;;;17.30;;
5381;SDS011;2714;49.852;6.564;2023-03-20T04:12:04;31.00;;;15.80;;
5381;SDS011;2714;49.852;6.564;2023-03-20T04:16:05;27.87;;;17.30;;
5381;SDS011;2714;49.852;6.564;2023-03-20T04:20:10;28.50;;;17.53;;
5381;SDS011;2714;49.852;6.564;2023-03-20T04:24:11;48.80;;;27.80;;
5381;SDS011;2714;49.852;6.564;2023-03-20T04:28:12;67.20;;;39.57;;
5381;SDS011;2714;49.852;6.564;2023-03-20T04:32:15;41.47;;;27.80;;
5381;SDS011;2714;49.852;6.564;2023-03-20T04:36:15;33.00;;;19.93;;
5381;SDS011;2714;49.852;6.564;2023-03-20T04:40:16;28.67;;;16.33;;
5381;SDS011;2714;49.852;6.564;2023-03-20T04:44:17;33.13;;;18.73;;
5381;SDS011;2714;49.852;6.564;2023-03-20T04:48:17;29.00;;;16.20;;
5381;SDS011;2714;49.852;6.564;2023-03-20T04:52:18;29.27;;;15.80;;
5381;SDS011;2714;49.852;6.564;2023-03-20T04:56:18;26.80;;;15.90;;
5381;SDS011;2714;49.852;6.564;2023-03-20T05:00:19;25.83;;;16.10;;
5381;SDS011;2714;49.852;6.564;2023-03-20T05:04:20;23.03;;;14.63;;
5381;SDS011;2714;49.852;6.564;2023-03-20T05:08:20;25.00;;;13.97;;
5381;SDS011;2714;49.852;6.564;2023-03-20T05:12:21;26.60;;;14.63;;
5381;SDS011;2714;49.852;6.564;2023-03-20T05:16:22;23.73;;;14.37;;
5381;SDS011;2714;49.852;6.564;2023-03-20T05:20:23;24.60;;;14.27;;
5381;SDS011;2714;49.852;6.564;2023-03-20T05:24:23;24.20;;;13.67;;
5381;SDS011;2714;49.852;6.564;2023-03-20T05:28:25;26.03;;;18.57;;
5381;SDS011;2714;49.852;6.564;2023-03-20T05:32:26;25.17;;;14.30;;
5381;SDS011;2714;49.852;6.564;2023-03-20T05:36:26;23.47;;;12.83;;
5381;SDS011;2714;49.852;6.564;2023-03-20T05:40:27;27.33;;;13.90;;
5381;SDS011;2714;49.852;6.564;2023-03-20T05:44:27;23.83;;;14.13;;
5381;SDS011;2714;49.852;6.564;2023-03-20T05:48:28;21.40;;;12.57;;
5381;SDS011;2714;49.852;6.564;2023-03-20T05:52:28;22.10;;;12.47;;
5381;SDS011;2714;49.852;6.564;2023-03-20T05:56:29;25.63;;;12.73;;
5381;SDS011;2714;49.852;6.564;2023-03-20T06:00:30;20.50;;;12.43;;
5381;SDS011;2714;49.852;6.564;2023-03-20T06:04:31;25.97;;;14.27;;
5381;SDS011;2714;49.852;6.564;2023-03-20T06:08:31;25.43;;;15.50;;
5381;SDS011;2714;49.852;6.564;2023-03-20T06:12:32;20.80;;;13.33;;
5381;SDS011;2714;49.852;6.564;2023-03-20T06:16:32;25.07;;;13.10;;
5381;SDS011;2714;49.852;6.564;2023-03-20T06:20:33;22.87;;;12.93;;
5381;SDS011;2714;49.852;6.564;2023-03-20T06:24:34;23.87;;;12.30;;
5381;SDS011;2714;49.852;6.564;2023-03-20T06:28:34;18.83;;;11.43;;
5381;SDS011;2714;49.852;6.564;2023-03-20T06:32:36;18.73;;;10.43;;
5381;SDS011;2714;49.852;6.564;2023-03-20T06:36:36;18.77;;;10.73;;
5381;SDS011;2714;49.852;6.564;2023-03-20T06:40:37;20.27;;;11.80;;
5381;SDS011;2714;49.852;6.564;2023-03-20T06:44:38;20.53;;;13.50;;
5381;SDS011;2714;49.852;6.564;2023-03-20T06:48:39;25.03;;;13.00;;
5381;SDS011;2714;49.852;6.564;2023-03-20T06:52:40;22.60;;;12.80;;
5381;SDS011;2714;49.852;6.564;2023-03-20T06:56:40;20.30;;;13.00;;
5381;SDS011;2714;49.852;6.564;2023-03-20T07:00:41;21.03;;;12.40;;
5381;SDS011;2714;49.852;6.564;2023-03-20T07:04:42;20.57;;;13.37;;
5381;SDS011;2714;49.852;6.564;2023-03-20T07:08:43;65.73;;;31.23;;
5381;SDS011;2714;49.852;6.564;2023-03-20T07:12:44;19.83;;;12.90;;
5381;SDS011;2714;49.852;6.564;2023-03-20T07:16:44;18.33;;;12.03;;
5381;SDS011;2714;49.852;6.564;2023-03-20T07:20:45;20.10;;;11.80;;
5381;SDS011;2714;49.852;6.564;2023-03-20T07:24:45;19.50;;;14.00;;
5381;SDS011;2714;49.852;6.564;2023-03-20T07:28:46;21.33;;;13.30;;
5381;SDS011;2714;49.852;6.564;2023-03-20T07:32:46;23.00;;;14.00;;
5381;SDS011;2714;49.852;6.564;2023-03-20T07:36:47;23.83;;;14.20;;
5381;SDS011;2714;49.852;6.564;2023-03-20T07:40:48;22.50;;;13.70;;
5381;SDS011;2714;49.852;6.564;2023-03-20T07:44:49;21.00;;;14.07;;
5381;SDS011;2714;49.852;6.564;2023-03-20T07:48:50;19.53;;;12.83;;
5381;SDS011;2714;49.852;6.564;2023-03-20T07:52:51;17.53;;;12.10;;
5381;SDS011;2714;49.852;6.564;2023-03-20T07:56:52;19.20;;;11.73;;
5381;SDS011;2714;49.852;6.564;2023-03-20T08:00:52;17.93;;;11.27;;
5381;SDS011;2714;49.852;6.564;2023-03-20T08:04:56;17.07;;;11.20;;
5381;SDS011;2714;49.852;6.564;2023-03-20T08:08:56;16.97;;;11.77;;
5381;SDS011;2714;49.852;6.564;2023-03-20T08:12:57;17.87;;;12.27;;
5381;SDS011;2714;49.852;6.564;2023-03-20T08:16:57;27.80;;;16.80;;
5381;SDS011;2714;49.852;6.564;2023-03-20T08:20:58;27.33;;;17.97;;
5381;SDS011;2714;49.852;6.564;2023-03-20T08:24:58;29.43;;;15.40;;
5381;SDS011;2714;49.852;6.564;2023-03-20T08:28:59;62.67;;;26.57;;
5381;SDS011;2714;49.852;6.564;2023-03-20T08:33:00;38.70;;;19.50;;
5381;SDS011;2714;49.852;6.564;2023-03-20T08:37:02;47.63;;;22.20;;
5381;SDS011;2714;49.852;6.564;2023-03-20T08:41:06;34.10;;;18.70;;
5381;SDS011;2714;49.852;6.564;2023-03-20T08:45:07;20.93;;;14.60;;
5381;SDS011;2714;49.852;6.564;2023-03-20T08:49:08;19.80;;;14.60;;
5381;SDS011;2714;49.852;6.564;2023-03-20T08:53:08;17.30;;;12.10;;
5381;SDS011;2714;49.852;6.564;2023-03-20T08:57:09;15.60;;;11.50;;
5381;SDS011;2714;49.852;6.564;2023-03-20T09:01:10;17.87;;;11.67;;
5381;SDS011;2714;49.852;6.564;2023-03-20T09:05:11;15.60;;;9.87;;
5381;SDS011;2714;49.852;6.564;2023-03-20T09:09:12;15.67;;;10.37;;
5381;SDS011;2714;49.852;6.564;2023-03-20T09:13:14;14.00;;;9.90;;
5381;SDS011;2714;49.852;6.564;2023-03-20T09:17:15;13.47;;;9.77;;
5381;SDS011;2714;49.852;6.564;2023-03-20T09:21:16;14.20;;;10.83;;
5381;SDS011;2714;49.852;6.564;2023-03-20T09:25:16;16.63;;;10.50;;
5381;SDS011;2714;49.852;6.564;2023-03-20T09:29:17;17.20;;;11.00;;
5381;SDS011;2714;49.852;6.564;2023-03-20T09:33:18;17.03;;;10.30;;
5381;SDS011;2714;49.852;6.564;2023-03-20T09:37:18;17.00;;;10.40;;
5381;SDS011;2714;49.852;6.564;2023-03-20T09:41:20;14.63;;;10.00;;
5381;SDS011;2714;49.852;6.564;2023-03-20T09:53:58;16.40;;;11.10;;
5381;SDS011;2714;49.852;6.564;2023-03-20T09:58:43;16.83;;;9.80;;
5381;SDS011;2714;49.852;6.564;2023-03-20T10:02:55;18.07;;;11.83;;
5381;SDS011;2714;49.852;6.564;2023-03-20T10:07:01;11.20;;;7.50;;
5381;SDS011;2714;49.852;6.564;2023-03-20T10:11:14;15.13;;;10.67;;
5381;SDS011;2714;49.852;6.564;2023-03-20T10:19:55;15.13;;;8.57;;
5381;SDS011;2714;49.852;6.564;2023-03-20T10:24:01;14.10;;;8.60;;
5381;SDS011;2714;49.852;6.564;2023-03-20T10:28:13;13.63;;;9.17;;
5381;SDS011;2714;49.852;6.564;2023-03-20T10:32:28;12.13;;;7.30;;
5381;SDS011;2714;49.852;6.564;2023-03-20T10:41:27;10.30;;;6.50;;
5381;SDS011;2714;49.852;6.564;2023-03-20T10:49:46;13.47;;;8.13;;
5381;SDS011;2714;49.852;6.564;2023-03-20T10:53:58;13.60;;;8.23;;
5381;SDS011;2714;49.852;6.564;2023-03-20T10:58:14;13.03;;;7.33;;
5381;SDS011;2714;49.852;6.564;2023-03-20T11:02:21;13.03;;;8.40;;
5381;SDS011;2714;49.852;6.564;2023-03-20T11:06:25;14.87;;;7.70;;
5381;SDS011;2714;49.852;6.564;2023-03-20T11:10:31;12.70;;;7.10;;
5381;SDS011;2714;49.852;6.564;2023-03-20T11:14:34;10.97;;;6.93;;
5381;SDS011;2714;49.852;6.564;2023-03-20T11:18:39;9.90;;;5.93;;
5381;SDS011;2714;49.852;6.564;2023-03-20T11:22:41;10.80;;;6.40;;
5381;SDS011;2714;49.852;6.564;2023-03-20T11:26:41;8.43;;;6.00;;
5381;SDS011;2714;49.852;6.564;2023-03-20T11:30:42;9.30;;;5.97;;
5381;SDS011;2714;49.852;6.564;2023-03-20T11:34:43;19.23;;;9.20;;
5381;SDS011;2714;49.852;6.564;2023-03-20T11:38:44;14.30;;;7.60;;
5381;SDS011;2714;49.852;6.564;2023-03-20T11:47:14;20.43;;;9.87;;
5381;SDS011;2714;49.852;6.564;2023-03-20T11:51:21;10.13;;;5.47;;
5381;SDS011;2714;49.852;6.564;2023-03-20T11:55:29;11.97;;;5.70;;
5381;SDS011;2714;49.852;6.564;2023-03-20T11:59:32;7.43;;;5.23;;
5381;SDS011;2714;49.852;6.564;2023-03-20T12:07:41;12.33;;;5.50;;
5381;SDS011;2714;49.852;6.564;2023-03-20T12:12:04;8.37;;;5.07;;
5381;SDS011;2714;49.852;6.564;2023-03-20T12:16:26;10.17;;;4.93;;
5381;SDS011;2714;49.852;6.564;2023-03-20T12:24:50;11.60;;;5.37;;
5381;SDS011;2714;49.852;6.564;2023-03-20T12:38:30;10.23;;;4.80;;
5381;SDS011;2714;49.852;6.564;2023-03-20T12:46:50;9.33;;;4.47;;
5381;SDS011;2714;49.852;6.564;2023-03-20T12:51:14;8.03;;;4.47;;
5381;SDS011;2714;49.852;6.564;2023-03-20T12:59:42;5.83;;;4.10;;
5381;SDS011;2714;49.852;6.564;2023-03-20T13:08:42;8.27;;;4.20;;
5381;SDS011;2714;49.852;6.564;2023-03-20T13:21:44;11.20;;;4.00;;
5381;SDS011;2714;49.852;6.564;2023-03-20T13:30:42;7.13;;;3.27;;
5381;SDS011;2714;49.852;6.564;2023-03-20T13:39:04;4.10;;;2.80;;
5381;SDS011;2714;49.852;6.564;2023-03-20T13:47:24;8.13;;;3.90;;
5381;SDS011;2714;49.852;6.564;2023-03-20T13:51:33;8.27;;;4.27;;
5381;SDS011;2714;49.852;6.564;2023-03-20T13:55:59;11.40;;;3.93;;
5381;SDS011;2714;49.852;6.564;2023-03-20T14:00:15;7.70;;;3.23;;
5381;SDS011;2714;49.852;6.564;2023-03-20T14:04:20;4.67;;;3.13;;
5381;SDS011;2714;49.852;6.564;2023-03-20T14:08:28;6.43;;;2.93;;
5381;SDS011;2714;49.852;6.564;2023-03-20T14:12:32;7.60;;;3.00;;
5381;SDS011;2714;49.852;6.564;2023-03-20T14:16:33;7.30;;;3.13;;
5381;SDS011;2714;49.852;6.564;2023-03-20T14:20:34;10.20;;;2.77;;
5381;SDS011;2714;49.852;6.564;2023-03-20T14:24:38;7.47;;;3.57;;
5381;SDS011;2714;49.852;6.564;2023-03-20T14:32:57;12.30;;;3.20;;
5381;SDS011;2714;49.852;6.564;2023-03-20T14:37:00;10.23;;;4.67;;
5381;SDS011;2714;49.852;6.564;2023-03-20T15:02:40;9.20;;;3.73;;
5381;SDS011;2714;49.852;6.564;2023-03-20T15:06:46;12.03;;;3.73;;
5381;SDS011;2714;49.852;6.564;2023-03-20T15:10:58;8.73;;;2.90;;
5381;SDS011;2714;49.852;6.564;2023-03-20T15:15:05;5.27;;;2.90;;
5381;SDS011;2714;49.852;6.564;2023-03-20T15:19:21;11.03;;;4.30;;
5381;SDS011;2714;49.852;6.564;2023-03-20T15:23:22;14.50;;;5.53;;
5381;SDS011;2714;49.852;6.564;2023-03-20T15:27:25;16.03;;;5.57;;
5381;SDS011;2714;49.852;6.564;2023-03-20T15:31:29;13.90;;;6.57;;
5381;SDS011;2714;49.852;6.564;2023-03-20T15:35:31;16.90;;;6.43;;
5381;SDS011;2714;49.852;6.564;2023-03-20T15:39:40;8.97;;;4.80;;
5381;SDS011;2714;49.852;6.564;2023-03-20T15:43:45;9.90;;;6.27;;
5381;SDS011;2714;49.852;6.564;2023-03-20T15:47:46;10.97;;;5.50;;
5381;SDS011;2714;49.852;6.564;2023-03-20T15:51:47;8.67;;;5.10;;
5381;SDS011;2714;49.852;6.564;2023-03-20T15:55:49;7.53;;;3.63;;
5381;SDS011;2714;49.852;6.564;2023-03-20T15:59:56;11.00;;;4.00;;
5381;SDS011;2714;49.852;6.564;2023-03-20T16:03:57;8.03;;;3.27;;
5381;SDS011;2714;49.852;6.564;2023-03-20T16:08:10;6.17;;;3.30;;
5381;SDS011;2714;49.852;6.564;2023-03-20T16:12:19;14.50;;;5.50;;
5381;SDS011;2714;49.852;6.564;2023-03-20T16:16:21;8.10;;;4.97;;
5381;SDS011;2714;49.852;6.564;2023-03-20T16:20:23;12.63;;;6.30;;
5381;SDS011;2714;49.852;6.564;2023-03-20T16:24:29;5.07;;;3.33;;
5381;SDS011;2714;49.852;6.564;2023-03-20T16:28:34;10.17;;;3.03;;
5381;SDS011;2714;49.852;6.564;2023-03-20T16:32:38;5.43;;;2.43;;
5381;SDS011;2714;49.852;6.564;2023-03-20T16:36:40;6.50;;;2.70;;
5381;SDS011;2714;49.852;6.564;2023-03-20T16:40:41;4.13;;;2.20;;
5381;SDS011;2714;49.852;6.564;2023-03-20T16:44:41;8.40;;;2.90;;
5381;SDS011;2714;49.852;6.564;2023-03-20T16:48:42;7.87;;;2.57;;
5381;SDS011;2714;49.852;6.564;2023-03-20T16:52:47;5.93;;;2.60;;
5381;SDS011;2714;49.852;6.564;2023-03-20T16:56:50;7.67;;;3.20;;
5381;SDS011;2714;49.852;6.564;2023-03-20T17:05:02;6.93;;;2.90;;
5381;SDS011;2714;49.852;6.564;2023-03-20T17:13:12;9.80;;;4.40;;
5381;SDS011;2714;49.852;6.564;2023-03-20T17:17:18;9.10;;;4.17;;
5381;SDS011;2714;49.852;6.564;2023-03-20T17:21:21;7.90;;;3.10;;
5381;SDS011;2714;49.852;6.564;2023-03-20T17:25:22;6.13;;;3.23;;
5381;SDS011;2714;49.852;6.564;2023-03-20T17:29:22;5.43;;;3.40;;
5381;SDS011;2714;49.852;6.564;2023-03-20T17:33:23;6.00;;;3.00;;
5381;SDS011;2714;49.852;6.564;2023-03-20T17:37:25;6.90;;;3.50;;
5381;SDS011;2714;49.852;6.564;2023-03-20T17:41:27;9.70;;;3.30;;
5381;SDS011;2714;49.852;6.564;2023-03-20T17:45:27;6.13;;;3.30;;
5381;SDS011;2714;49.852;6.564;2023-03-20T17:49:28;8.03;;;3.37;;
5381;SDS011;2714;49.852;6.564;2023-03-20T17:53:28;4.57;;;2.70;;
5381;SDS011;2714;49.852;6.564;2023-03-20T17:57:31;13.20;;;4.07;;
5381;SDS011;2714;49.852;6.564;2023-03-20T18:01:36;6.87;;;3.00;;
5381;SDS011;2714;49.852;6.564;2023-03-20T18:05:37;5.13;;;3.00;;
5381;SDS011;2714;49.852;6.564;2023-03-20T18:09:38;9.13;;;4.10;;
5381;SDS011;2714;49.852;6.564;2023-03-20T18:13:40;6.87;;;3.50;;
5381;SDS011;2714;49.852;6.564;2023-03-20T18:17:40;5.33;;;3.40;;
5381;SDS011;2714;49.852;6.564;2023-03-20T18:21:41;7.37;;;3.30;;
5381;SDS011;2714;49.852;6.564;2023-03-20T18:25:42;14.90;;;4.10;;
5381;SDS011;2714;49.852;6.564;2023-03-20T18:29:42;7.60;;;3.83;;
5381;SDS011;2714;49.852;6.564;2023-03-20T18:33:47;7.37;;;3.60;;
5381;SDS011;2714;49.852;6.564;2023-03-20T18:37:48;8.17;;;3.67;;
5381;SDS011;2714;49.852;6.564;2023-03-20T18:41:49;9.70;;;4.27;;
5381;SDS011;2714;49.852;6.564;2023-03-20T18:45:50;10.33;;;4.13;;
5381;SDS011;2714;49.852;6.564;2023-03-20T18:49:50;7.20;;;4.53;;
5381;SDS011;2714;49.852;6.564;2023-03-20T18:53:51;14.57;;;5.10;;
5381;SDS011;2714;49.852;6.564;2023-03-20T18:57:52;15.57;;;4.90;;
5381;SDS011;2714;49.852;6.564;2023-03-20T19:01:53;6.90;;;3.80;;
5381;SDS011;2714;49.852;6.564;2023-03-20T19:05:54;11.00;;;3.90;;
5381;SDS011;2714;49.852;6.564;2023-03-20T19:09:56;8.13;;;4.77;;
5381;SDS011;2714;49.852;6.564;2023-03-20T19:13:57;8.97;;;4.40;;
5381;SDS011;2714;49.852;6.564;2023-03-20T19:17:57;8.40;;;5.00;;
5381;SDS011;2714;49.852;6.564;2023-03-20T19:22:06;11.43;;;4.53;;
5381;SDS011;2714;49.852;6.564;2023-03-20T19:26:12;6.07;;;4.20;;
5381;SDS011;2714;49.852;6.564;2023-03-20T19:34:36;10.20;;;4.57;;
5381;SDS011;2714;49.852;6.564;2023-03-20T19:38:36;11.13;;;4.70;;
5381;SDS011;2714;49.852;6.564;2023-03-20T19:42:37;12.23;;;4.53;;
5381;SDS011;2714;49.852;6.564;2023-03-20T19:46:37;7.67;;;4.47;;
5381;SDS011;2714;49.852;6.564;2023-03-20T19:50:38;9.70;;;4.27;;
5381;SDS011;2714;49.852;6.564;2023-03-20T19:54:39;7.00;;;4.50;;
5381;SDS011;2714;49.852;6.564;2023-03-20T19:58:42;9.57;;;5.10;;
5381;SDS011;2714;49.852;6.564;2023-03-20T20:02:43;8.20;;;4.63;;
5381;SDS011;2714;49.852;6.564;2023-03-20T20:06:45;10.33;;;4.17;;
5381;SDS011;2714;49.852;6.564;2023-03-20T20:10:50;8.67;;;4.43;;
5381;SDS011;2714;49.852;6.564;2023-03-20T20:14:51;7.87;;;4.30;;
5381;SDS011;2714;49.852;6.564;2023-03-20T20:18:52;8.37;;;4.80;;
5381;SDS011;2714;49.852;6.564;2023-03-20T20:22:52;9.93;;;5.17;;
5381;SDS011;2714;49.852;6.564;2023-03-20T20:26:53;8.00;;;4.63;;
5381;SDS011;2714;49.852;6.564;2023-03-20T20:30:56;8.93;;;4.90;;
5381;SDS011;2714;49.852;6.564;2023-03-20T20:34:57;12.00;;;4.97;;
5381;SDS011;2714;49.852;6.564;2023-03-20T20:38:57;7.27;;;4.63;;
5381;SDS011;2714;49.852;6.564;2023-03-20T20:42:58;12.13;;;5.13;;
5381;SDS011;2714;49.852;6.564;2023-03-20T20:46:59;7.70;;;5.07;;
5381;SDS011;2714;49.852;6.564;2023-03-20T20:50:59;14.17;;;5.53;;
5381;SDS011;2714;49.852;6.564;2023-03-20T20:55:00;9.77;;;5.00;;
5381;SDS011;2714;49.852;6.564;2023-03-20T20:59:01;7.60;;;5.20;;
5381;SDS011;2714;49.852;6.564;2023-03-20T21:03:01;10.07;;;6.80;;
5381;SDS011;2714;49.852;6.564;2023-03-20T21:07:02;10.73;;;5.40;;
5381;SDS011;2714;49.852;6.564;2023-03-20T21:11:03;9.93;;;4.80;;
5381;SDS011;2714;49.852;6.564;2023-03-20T21:15:04;13.43;;;5.40;;
5381;SDS011;2714;49.852;6.564;2023-03-20T21:19:05;10.00;;;5.00;;
5381;SDS011;2714;49.852;6.564;2023-03-20T21:23:06;10.27;;;5.03;;
5381;SDS011;2714;49.852;6.564;2023-03-20T21:27:08;8.80;;;4.87;;
5381;SDS011;2714;49.852;6.564;2023-03-20T21:31:19;8.60;;;4.70;;
5381;SDS011;2714;49.852;6.564;2023-03-20T21:35:21;11.57;;;5.20;;
5381;SDS011;2714;49.852;6.564;2023-03-20T21:39:22;12.17;;;5.57;;
5381;SDS011;2714;49.852;6.564;2023-03-20T21:43:22;10.13;;;5.73;;
5381;SDS011;2714;49.852;6.564;2023-03-20T21:47:23;8.40;;;5.37;;
5381;SDS011;2714;49.852;6.564;2023-03-20T21:51:24;8.20;;;5.33;;
5381;SDS011;2714;49.852;6.564;2023-03-20T21:55:25;10.10;;;5.83;;
5381;SDS011;2714;49.852;6.564;2023-03-20T21:59:26;10.77;;;5.80;;
5381;SDS011;2714;49.852;6.564;2023-03-20T22:03:26;12.30;;;6.20;;
5381;SDS011;2714;49.852;6.564;2023-03-20T22:07:27;10.57;;;6.73;;
5381;SDS011;2714;49.852;6.564;2023-03-20T22:11:28;10.73;;;6.10;;
5381;SDS011;2714;49.852;6.564;2023-03-20T22:15:29;12.07;;;6.60;;
5381;SDS011;2714;49.852;6.564;2023-03-20T22:19:30;11.03;;;6.70;;
5381;SDS011;2714;49.852;6.564;2023-03-20T22:23:31;10.57;;;6.30;;
5381;SDS011;2714;49.852;6.564;2023-03-20T22:27:31;14.07;;;6.07;;
5381;SDS011;2714;49.852;6.564;2023-03-20T22:31:32;10.93;;;6.03;;
5381;SDS011;2714;49.852;6.564;2023-03-20T22:35:32;8.07;;;5.40;;
5381;SDS011;2714;49.852;6.564;2023-03-20T22:39:33;9.97;;;5.50;;
5381;SDS011;2714;49.852;6.564;2023-03-20T22:43:34;9.93;;;5.30;;
5381;SDS011;2714;49.852;6.564;2023-03-20T22:47:34;13.00;;;5.63;;
5381;SDS011;2714;49.852;6.564;2023-03-20T22:51:35;8.67;;;5.30;;
5381;SDS011;2714;49.852;6.564;2023-03-20T22:55:35;10.67;;;6.10;;
5381;SDS011;2714;49.852;6.564;2023-03-20T22:59:36;11.10;;;5.80;;
5381;SDS011;2714;49.852;6.564;2023-03-20T23:03:37;9.80;;;5.70;;
5381;SDS011;2714;49.852;6.564;2023-03-20T23:07:38;9.60;;;5.93;;
5381;SDS011;2714;49.852;6.564;2023-03-20T23:11:39;10.67;;;5.40;;
5381;SDS011;2714;49.852;6.564;2023-03-20T23:15:40;11.97;;;5.97;;
5381;SDS011;2714;49.852;6.564;2023-03-20T23:19:40;9.70;;;5.23;;
5381;SDS011;2714;49.852;6.564;2023-03-20T23:23:41;7.90;;;5.50;;
5381;SDS011;2714;49.852;6.564;2023-03-20T23:27:42;7.70;;;4.57;;
5381;SDS011;2714;49.852;6.564;2023-03-20T23:31:42;8.20;;;4.90;;
5381;SDS011;2714;49.852;6.564;2023-03-20T23:35:43;10.77;;;6.00;;
5381;SDS011;2714;49.852;6.564;2023-03-20T23:39:44;9.70;;;5.47;;
5381;SDS011;2714;49.852;6.564;2023-03-20T23:43:44;9.50;;;5.97;;
5381;SDS011;2714;49.852;6.564;2023-03-20T23:47:45;12.73;;;6.20;;
5381;SDS011;2714;49.852;6.564;2023-03-20T23:51:47;11.13;;;5.40;;
5381;SDS011;2714;49.852;6.564;2023-03-20T23:55:48;9.40;;;5.40;;
5381;SDS011;2714;49.852;6.564;2023-03-20T23:59:51;9.40;;;6.00;;
